Terminal Aerodrome Forecast
Issued by NWS Grand Junction, CO

Home | Current Version | Previous Version | Text Only | Print | Product List | Glossary On
Versions: 1 2 3 4 5 6 7 8 9 10 11 12 13 14 15 16 17 18 19 20 21 22 23 24 25
000
FTUS45 KGJT 022325
TAFGJT
TAF
KGJT 022325Z 0300/0324 26006KT P6SM SCT100 BKN200
     FM030200 09010KT P6SM BKN200
     FM031100 13010KT P6SM FEW120 SCT200
     FM031900 26006KT P6SM FEW100 SCT200=

USA.gov is the U.S. government's official web portal to all federal, state and local government web resources and services.